createdAt,value
2022-08-14T00:03:43.417Z,21.27
2022-08-14T00:13:52.652Z,21.14
2022-08-14T00:24:01.755Z,21.14
2022-08-14T00:34:37.021Z,21.09
2022-08-14T00:44:35.074Z,21.18
2022-08-14T00:54:44.526Z,21.13
2022-08-14T01:04:59.961Z,21.19
2022-08-14T01:15:09.381Z,21.17
2022-08-14T01:25:21.571Z,21.13
2022-08-14T01:36:04.747Z,21.10
2022-08-14T01:45:57.739Z,21.10
2022-08-14T01:56:18.713Z,21.06
2022-08-14T02:06:32.884Z,21.05
2022-08-14T02:16:58.497Z,21.05
2022-08-14T02:28:26.100Z,20.98
2022-08-14T02:37:47.057Z,21.04
2022-08-14T02:47:57.460Z,21.04
2022-08-14T02:58:06.113Z,20.94
2022-08-14T03:08:15.383Z,20.87
2022-08-14T03:18:30.855Z,20.91
2022-08-14T03:28:42.229Z,20.99
2022-08-14T03:39:16.159Z,20.99
2022-08-14T03:49:24.277Z,20.99
2022-08-14T03:59:35.765Z,21.00
2022-08-14T04:09:43.989Z,21.05
2022-08-14T04:19:50.383Z,21.07
2022-08-14T04:29:58.481Z,21.09
2022-08-14T04:40:23.836Z,21.11
2022-08-14T04:50:43.826Z,21.10
2022-08-14T05:00:52.809Z,21.13
2022-08-14T05:11:07.772Z,21.12
2022-08-14T05:31:30.194Z,21.11
2022-08-14T05:41:53.592Z,21.04
2022-08-14T05:52:01.856Z,20.98
2022-08-14T06:02:09.891Z,21.02
2022-08-14T06:12:31.147Z,20.78
2022-08-14T06:22:38.082Z,20.94
2022-08-14T06:32:45.223Z,20.42
2022-08-14T06:42:52.033Z,20.92
2022-08-14T06:53:01.502Z,21.19
2022-08-14T07:03:26.462Z,21.10
2022-08-14T07:13:32.917Z,21.29
2022-08-14T07:23:39.933Z,21.57
2022-08-14T07:33:50.715Z,21.41
2022-08-14T07:43:57.725Z,21.59
2022-08-14T07:54:09.838Z,21.67
2022-08-14T08:04:18.835Z,21.76
2022-08-14T08:14:32.333Z,21.85
2022-08-14T08:24:58.633Z,22.08
2022-08-14T08:35:05.362Z,22.40
2022-08-14T08:45:17.442Z,22.35
2022-08-14T08:55:47.866Z,22.21
2022-08-14T09:06:02.696Z,22.25
2022-08-14T09:16:18.504Z,22.32
2022-08-14T09:26:27.060Z,22.24
2022-08-14T09:36:53.485Z,22.46
2022-08-14T09:47:01.085Z,22.60
2022-08-14T09:57:08.993Z,22.49
2022-08-14T10:07:15.484Z,22.71
2022-08-14T10:17:28.041Z,22.93
2022-08-14T10:27:48.321Z,23.23
2022-08-14T10:38:03.658Z,23.88
2022-08-14T10:48:24.515Z,23.96
2022-08-14T10:58:45.182Z,24.63
2022-08-14T11:08:53.242Z,25.04
2022-08-14T11:19:01.427Z,25.12
2022-08-14T11:29:08.792Z,25.56
2022-08-14T11:39:34.570Z,26.14
2022-08-14T11:49:43.513Z,26.42
2022-08-14T11:59:49.821Z,26.58
2022-08-14T12:10:26.560Z,26.38
2022-08-14T12:20:38.554Z,26.11
2022-08-14T12:30:53.611Z,27.34
2022-08-14T12:41:03.462Z,26.98
2022-08-14T12:51:21.834Z,27.40
2022-08-14T13:02:00.165Z,25.97
2022-08-14T13:12:34.932Z,27.12
2022-08-14T13:22:38.256Z,27.96
2022-08-14T13:32:46.354Z,28.14
2022-08-14T13:42:53.557Z,25.75
2022-08-14T13:53:00.868Z,26.73
2022-08-14T14:03:10.270Z,26.89
2022-08-14T14:13:18.908Z,27.20
2022-08-14T14:23:25.954Z,26.66
2022-08-14T14:33:50.093Z,27.26
2022-08-14T14:44:00.005Z,26.97
2022-08-14T14:54:08.015Z,26.67
2022-08-14T15:04:19.928Z,26.30
2022-08-14T15:14:55.855Z,26.25
2022-08-14T15:24:53.647Z,26.20
2022-08-14T15:35:00.373Z,25.86
2022-08-14T15:45:11.681Z,26.09
2022-08-14T15:55:18.187Z,25.65
2022-08-14T16:05:26.450Z,25.63
2022-08-14T16:15:53.203Z,25.44
2022-08-14T16:26:03.205Z,25.52
2022-08-14T16:36:19.678Z,25.38
2022-08-14T16:56:55.138Z,24.89
2022-08-14T17:07:05.510Z,24.92
2022-08-14T17:17:12.281Z,24.73
2022-08-14T17:27:24.327Z,24.59
2022-08-14T17:37:40.120Z,24.69
2022-08-14T17:47:52.096Z,24.38
2022-08-14T17:57:58.447Z,24.13
2022-08-14T18:08:32.019Z,23.88
2022-08-14T18:18:34.976Z,24.00
2022-08-14T18:28:51.155Z,23.91
2022-08-14T18:39:34.119Z,23.79
2022-08-14T18:49:59.003Z,23.58
2022-08-14T19:00:32.095Z,23.40
2022-08-14T19:10:39.946Z,23.23
2022-08-14T19:20:58.173Z,23.08
2022-08-14T19:31:37.168Z,22.91
2022-08-14T19:41:58.193Z,22.73
2022-08-14T19:52:05.175Z,22.68
2022-08-14T20:02:30.156Z,22.49
2022-08-14T20:12:57.484Z,22.43
2022-08-14T20:23:11.981Z,22.00
2022-08-14T20:33:18.902Z,22.04
2022-08-14T20:43:52.820Z,21.97
2022-08-14T20:54:02.161Z,21.89
2022-08-14T21:04:32.998Z,21.75
2022-08-14T21:14:39.325Z,21.78
2022-08-14T21:25:01.562Z,21.64
2022-08-14T21:35:14.743Z,21.69
2022-08-14T21:45:23.957Z,21.76
2022-08-14T21:55:32.381Z,21.78
2022-08-14T22:05:42.871Z,21.73
2022-08-14T22:15:51.717Z,21.71
2022-08-14T22:26:03.247Z,21.68
2022-08-14T22:36:33.761Z,21.51
2022-08-14T22:46:43.481Z,21.64
2022-08-14T22:56:50.127Z,21.56
2022-08-14T23:07:02.932Z,21.54
2022-08-14T23:17:12.034Z,21.49
2022-08-14T23:27:20.985Z,21.38
2022-08-14T23:37:34.662Z,21.41
2022-08-14T23:47:51.049Z,21.39
2022-08-14T23:57:59.320Z,21.37
